LFPB/LBG METAR and TAF weather

Enter ICAO airport designator
Station Type Date Time Source
LFPB METAR 2018/12/18 20:00 UTC NOAA

LFPB 182000Z AUTO 15010KT CAVOK 07/02 Q1010 BECMG BKN013


Station Type Date Time Source
LFPB Decoded METAR 2018/12/18 20:00 UTC NOAA

Paris / Le Bourget, France (LFPB) 48-58N 002-27E 65M
Dec 18, 2018 - 03:00 PM EST / 2018.12.18 2000 UTC
Wind: from the SSE (150 degrees) at 12 MPH (10 KT):0
Visibility: greater than 7 mile(s):0
Temperature: 44 F (7 C)
Dew Point: 35 F (2 C)
Relative Humidity: 70%
Pressure (altimeter): 29.83 in. Hg (1010 hPa)
ob: LFPB 182000Z AUTO 15010KT CAVOK 07/02 Q1010 BECMG BKN013
cycle: 20

Station Type Date Time Source
LFPB TAF 2018/12/18 18:21 UTC NOAA

TAF LFPB 181700Z 1818/1918 15010KT CAVOK TX09/1912Z TN07/1818Z
BECMG 1821/1823 20010KT BKN013
TEMPO 1900/1909 BKN008
TEMPO 1823/1824 3000 RA PROB30
TEMPO 1906/1912 -SHRA SCT015TCU
BECMG 1912/1914 BKN018


Example: see airport list